Saturday, November 29, 2014
00:11 UTC
  |  Log In   |  Register Free
Airport Search:

De Kalb County Airport
(KGWB)

De Kalb County Airport Diagram
No Airport Diagram Available

FAA data valid effective November 13, 2014 - January 08, 2015 (unless otherwise noted).

 
 
 
 
 
 
 
 
 
 
 
 
 
 

Current Aviation Weather for De Kalb County Airport (KGWB)

The most recent METAR observation for KGWB was updated at: 2316
METAR Summary (Translated METAR)
KGWB
282255Z AUTO 13006KT 10SM SCT120 M01/M06 A3010 RMK AO2
KANQ
282315Z AUTO 15007KT 10SM FEW065 BKN100 M03/M07 A3008 RMK
(20 nm NW from KGWB)
KFWA
282254Z 15008KT 10SM BKN110 OVC170 M01/M07 A3010 RMK AO2 SLP204 T10111072
(20.6 nm SW from KGWB)
TAF Summary (Translated TAF)
KFWA
(20.6 nm SW from KGWB)
281740Z 2818/2918 18008KT P6SM BKN080 FM291500 20015G22KT P6SM SCT020 OVC050 WS019/24040KT
  Airport Weather Conditions for KGWB

 Current Weather at GWB
30° F
Partly Cloudy
Southeast winds at 6.9 mph
GWB NOAA Radar

Pressure: 30.10 in
Humidity: 69%
Wind: Southeast at 6.9 MPH (6 KT)
Dew Point: 21.2°F
Visibility: 10.00 mi


Airport Weather Forecast for KGWB

Translated METAR and TAF for KGWB
Translated METAR for KGWB (0006 UTC 29 November 2014)
found at http://aviationweather.gov/adds/metars/
 
METAR text: KGWB 282355Z AUTO 15004KT 10SM BKN110 M01/M07 A3009 RMK AO2
Conditions at: KGWB (AUBURN DEKALB C , IN, US) observed 2355 UTC 28 November 2014
Temperature: -1.0°C (30°F)
Dewpoint: -7.0°C (19°F) [RH = 64%]
Pressure (altimeter): 30.09 inches Hg (1019.0 mb)
Winds: from the SSE (150 degrees) at 5 MPH (4 knots; 2.1 m/s)
Visibility: 10 or more miles (16+ km)
Ceiling: 11000 feet AGL
Clouds: broken clouds at 11000 feet AGL
Weather: automated observation with no human augmentation;
there may or may not be significant weather present at this time
Translated TAF for KGWB

There is no translated TAF available for this airport

Find All Airport Services Find A Hotel Find A Rental Car Find A Golf Course Find A Restaurant $100 Hamburger



FBO's on the Field
FBO Company Facility Photos Services Transportation Aviation Fuel Prices: Prices include tax
Catering Weather Repair Courtesy Rental Type 100LL JetA JetA+ MOGAS 8087
 
Century Aviation

This FBO has not yet been rated
FS:Shell
Last Updated: Nov-01
Login to update fuel prices
SS:
Contact Century AviationMore FBO Information
 
Add another FBO Facility Photos Catering Weather Repair Courtesy Rental Type 100LL JetA JetA+ MOGAS 8087
Services Transportation Aviation Fuel Prices: Prices include tax


model-print
model-print
model-print
model-print